sensor_id;sensor_type;location;lat;lon;timestamp;P1;durP1;ratioP1;P2;durP2;ratioP2
66927;SDS011;59882;45.624;11.698;2023-07-13T00:01:54;12.80;;;3.87;;
66927;SDS011;59882;45.624;11.698;2023-07-13T00:04:20;15.30;;;4.18;;
66927;SDS011;59882;45.624;11.698;2023-07-13T00:06:48;10.65;;;3.47;;
66927;SDS011;59882;45.624;11.698;2023-07-13T00:09:14;15.50;;;4.47;;
66927;SDS011;59882;45.624;11.698;2023-07-13T00:11:41;14.23;;;4.72;;
66927;SDS011;59882;45.624;11.698;2023-07-13T00:14:07;14.10;;;4.80;;
66927;SDS011;59882;45.624;11.698;2023-07-13T00:16:34;13.68;;;4.50;;
66927;SDS011;59882;45.624;11.698;2023-07-13T00:19:01;15.20;;;4.30;;
66927;SDS011;59882;45.624;11.698;2023-07-13T00:21:27;13.73;;;4.40;;
66927;SDS011;59882;45.624;11.698;2023-07-13T00:23:53;11.55;;;4.05;;
66927;SDS011;59882;45.624;11.698;2023-07-13T00:26:18;9.23;;;3.17;;
66927;SDS011;59882;45.624;11.698;2023-07-13T00:28:44;9.90;;;3.20;;
66927;SDS011;59882;45.624;11.698;2023-07-13T00:31:10;15.00;;;3.40;;
66927;SDS011;59882;45.624;11.698;2023-07-13T00:33:37;20.38;;;4.80;;
66927;SDS011;59882;45.624;11.698;2023-07-13T00:36:03;43.13;;;7.93;;
66927;SDS011;59882;45.624;11.698;2023-07-13T00:38:29;30.88;;;7.45;;
66927;SDS011;59882;45.624;11.698;2023-07-13T00:40:55;31.33;;;7.50;;
66927;SDS011;59882;45.624;11.698;2023-07-13T00:43:21;23.53;;;8.00;;
66927;SDS011;59882;45.624;11.698;2023-07-13T00:48:16;32.43;;;9.47;;
66927;SDS011;59882;45.624;11.698;2023-07-13T00:50:45;32.97;;;9.35;;
66927;SDS011;59882;45.624;11.698;2023-07-13T00:53:13;36.83;;;9.43;;
66927;SDS011;59882;45.624;11.698;2023-07-13T00:55:39;28.92;;;8.00;;
66927;SDS011;59882;45.624;11.698;2023-07-13T00:58:05;24.57;;;7.60;;
66927;SDS011;59882;45.624;11.698;2023-07-13T01:00:32;27.60;;;8.65;;
66927;SDS011;59882;45.624;11.698;2023-07-13T01:03:01;36.72;;;9.40;;
66927;SDS011;59882;45.624;11.698;2023-07-13T01:05:29;23.70;;;7.72;;
66927;SDS011;59882;45.624;11.698;2023-07-13T01:07:57;30.10;;;8.37;;
66927;SDS011;59882;45.624;11.698;2023-07-13T01:10:23;25.70;;;7.35;;
66927;SDS011;59882;45.624;11.698;2023-07-13T01:12:50;29.15;;;9.07;;
66927;SDS011;59882;45.624;11.698;2023-07-13T01:15:36;29.00;;;9.68;;
66927;SDS011;59882;45.624;11.698;2023-07-13T01:18:02;25.27;;;8.15;;
66927;SDS011;59882;45.624;11.698;2023-07-13T01:20:30;20.17;;;6.80;;
66927;SDS011;59882;45.624;11.698;2023-07-13T01:23:03;23.10;;;6.95;;
66927;SDS011;59882;45.624;11.698;2023-07-13T01:25:34;17.92;;;6.22;;
66927;SDS011;59882;45.624;11.698;2023-07-13T01:28:01;20.85;;;7.03;;
66927;SDS011;59882;45.624;11.698;2023-07-13T01:30:31;20.52;;;6.50;;
66927;SDS011;59882;45.624;11.698;2023-07-13T01:32:57;23.93;;;7.63;;
66927;SDS011;59882;45.624;11.698;2023-07-13T01:35:24;21.67;;;7.13;;
66927;SDS011;59882;45.624;11.698;2023-07-13T01:37:52;21.17;;;7.22;;
66927;SDS011;59882;45.624;11.698;2023-07-13T01:40:18;22.13;;;6.70;;
66927;SDS011;59882;45.624;11.698;2023-07-13T01:42:44;23.92;;;7.50;;
66927;SDS011;59882;45.624;11.698;2023-07-13T01:45:09;27.02;;;8.15;;
66927;SDS011;59882;45.624;11.698;2023-07-13T01:47:35;27.27;;;8.20;;
66927;SDS011;59882;45.624;11.698;2023-07-13T01:50:01;23.77;;;7.30;;
66927;SDS011;59882;45.624;11.698;2023-07-13T01:52:26;29.27;;;8.53;;
66927;SDS011;59882;45.624;11.698;2023-07-13T01:54:52;22.93;;;7.10;;
66927;SDS011;59882;45.624;11.698;2023-07-13T01:57:17;24.80;;;7.78;;
66927;SDS011;59882;45.624;11.698;2023-07-13T01:59:43;24.90;;;8.13;;
66927;SDS011;59882;45.624;11.698;2023-07-13T02:02:08;25.13;;;8.10;;
66927;SDS011;59882;45.624;11.698;2023-07-13T02:04:34;21.60;;;7.13;;
66927;SDS011;59882;45.624;11.698;2023-07-13T02:07:00;25.33;;;6.93;;
66927;SDS011;59882;45.624;11.698;2023-07-13T02:09:25;26.15;;;8.23;;
66927;SDS011;59882;45.624;11.698;2023-07-13T02:11:51;28.40;;;7.43;;
66927;SDS011;59882;45.624;11.698;2023-07-13T02:14:17;20.90;;;7.72;;
66927;SDS011;59882;45.624;11.698;2023-07-13T02:16:42;16.30;;;5.67;;
66927;SDS011;59882;45.624;11.698;2023-07-13T02:19:08;18.77;;;6.72;;
66927;SDS011;59882;45.624;11.698;2023-07-13T02:21:34;19.17;;;6.73;;
66927;SDS011;59882;45.624;11.698;2023-07-13T02:24:00;20.83;;;7.93;;
66927;SDS011;59882;45.624;11.698;2023-07-13T02:26:26;19.08;;;6.82;;
66927;SDS011;59882;45.624;11.698;2023-07-13T02:28:52;28.40;;;8.70;;
66927;SDS011;59882;45.624;11.698;2023-07-13T02:31:18;18.67;;;7.03;;
66927;SDS011;59882;45.624;11.698;2023-07-13T02:33:44;17.47;;;6.80;;
66927;SDS011;59882;45.624;11.698;2023-07-13T02:36:10;21.13;;;8.67;;
66927;SDS011;59882;45.624;11.698;2023-07-13T02:38:36;24.02;;;8.98;;
66927;SDS011;59882;45.624;11.698;2023-07-13T02:41:06;26.70;;;9.97;;
66927;SDS011;59882;45.624;11.698;2023-07-13T02:43:33;23.92;;;8.80;;
66927;SDS011;59882;45.624;11.698;2023-07-13T02:45:59;30.08;;;8.73;;
66927;SDS011;59882;45.624;11.698;2023-07-13T02:48:32;33.90;;;9.90;;
66927;SDS011;59882;45.624;11.698;2023-07-13T02:50:58;28.37;;;10.37;;
66927;SDS011;59882;45.624;11.698;2023-07-13T02:53:24;17.90;;;7.93;;
66927;SDS011;59882;45.624;11.698;2023-07-13T02:55:50;22.60;;;9.00;;
66927;SDS011;59882;45.624;11.698;2023-07-13T02:58:15;23.27;;;9.07;;
66927;SDS011;59882;45.624;11.698;2023-07-13T03:00:42;20.20;;;9.95;;
66927;SDS011;59882;45.624;11.698;2023-07-13T03:03:12;23.15;;;10.50;;
66927;SDS011;59882;45.624;11.698;2023-07-13T03:05:41;16.70;;;9.77;;
66927;SDS011;59882;45.624;11.698;2023-07-13T03:08:09;30.58;;;12.15;;
66927;SDS011;59882;45.624;11.698;2023-07-13T03:10:35;45.13;;;14.60;;
66927;SDS011;59882;45.624;11.698;2023-07-13T03:13:01;32.47;;;13.90;;
66927;SDS011;59882;45.624;11.698;2023-07-13T03:15:27;27.17;;;12.70;;
66927;SDS011;59882;45.624;11.698;2023-07-13T03:17:53;28.25;;;11.45;;
66927;SDS011;59882;45.624;11.698;2023-07-13T03:20:18;29.60;;;13.83;;
66927;SDS011;59882;45.624;11.698;2023-07-13T03:22:44;36.92;;;15.00;;
66927;SDS011;59882;45.624;11.698;2023-07-13T03:25:10;41.40;;;15.43;;
66927;SDS011;59882;45.624;11.698;2023-07-13T03:27:36;35.10;;;14.82;;
66927;SDS011;59882;45.624;11.698;2023-07-13T03:30:03;29.95;;;13.93;;
66927;SDS011;59882;45.624;11.698;2023-07-13T03:32:29;31.38;;;13.30;;
66927;SDS011;59882;45.624;11.698;2023-07-13T03:34:55;36.37;;;16.50;;
66927;SDS011;59882;45.624;11.698;2023-07-13T03:37:21;33.47;;;15.00;;
66927;SDS011;59882;45.624;11.698;2023-07-13T03:39:46;41.17;;;17.13;;
66927;SDS011;59882;45.624;11.698;2023-07-13T03:42:12;40.03;;;16.10;;
66927;SDS011;59882;45.624;11.698;2023-07-13T03:44:39;29.65;;;14.70;;
66927;SDS011;59882;45.624;11.698;2023-07-13T03:47:05;30.38;;;13.57;;
66927;SDS011;59882;45.624;11.698;2023-07-13T03:49:33;20.13;;;11.13;;
66927;SDS011;59882;45.624;11.698;2023-07-13T03:51:59;24.30;;;11.70;;
66927;SDS011;59882;45.624;11.698;2023-07-13T03:54:25;31.70;;;12.40;;
66927;SDS011;59882;45.624;11.698;2023-07-13T03:56:51;22.23;;;11.37;;
66927;SDS011;59882;45.624;11.698;2023-07-13T03:59:16;29.50;;;13.60;;
66927;SDS011;59882;45.624;11.698;2023-07-13T04:01:43;31.40;;;14.20;;
66927;SDS011;59882;45.624;11.698;2023-07-13T04:04:09;29.58;;;13.18;;
66927;SDS011;59882;45.624;11.698;2023-07-13T04:06:35;28.63;;;12.03;;
66927;SDS011;59882;45.624;11.698;2023-07-13T04:09:02;36.53;;;14.60;;
66927;SDS011;59882;45.624;11.698;2023-07-13T04:11:30;35.47;;;14.85;;
66927;SDS011;59882;45.624;11.698;2023-07-13T04:13:57;42.03;;;16.40;;
66927;SDS011;59882;45.624;11.698;2023-07-13T04:16:23;36.80;;;15.80;;
66927;SDS011;59882;45.624;11.698;2023-07-13T04:18:49;29.00;;;14.10;;
66927;SDS011;59882;45.624;11.698;2023-07-13T04:21:19;32.03;;;13.67;;
66927;SDS011;59882;45.624;11.698;2023-07-13T04:23:45;33.22;;;13.90;;
66927;SDS011;59882;45.624;11.698;2023-07-13T04:26:11;35.42;;;14.75;;
66927;SDS011;59882;45.624;11.698;2023-07-13T04:28:37;32.70;;;14.47;;
66927;SDS011;59882;45.624;11.698;2023-07-13T04:31:02;27.80;;;13.35;;
66927;SDS011;59882;45.624;11.698;2023-07-13T04:33:28;28.27;;;13.30;;
66927;SDS011;59882;45.624;11.698;2023-07-13T04:35:54;24.13;;;12.77;;
66927;SDS011;59882;45.624;11.698;2023-07-13T04:38:25;30.30;;;13.67;;
66927;SDS011;59882;45.624;11.698;2023-07-13T04:40:55;27.35;;;12.68;;
66927;SDS011;59882;45.624;11.698;2023-07-13T04:43:22;27.73;;;13.57;;
66927;SDS011;59882;45.624;11.698;2023-07-13T04:45:49;25.45;;;14.55;;
66927;SDS011;59882;45.624;11.698;2023-07-13T04:48:15;27.13;;;15.07;;
66927;SDS011;59882;45.624;11.698;2023-07-13T04:50:41;29.40;;;14.17;;
66927;SDS011;59882;45.624;11.698;2023-07-13T04:53:08;26.50;;;12.75;;
66927;SDS011;59882;45.624;11.698;2023-07-13T04:55:35;26.50;;;12.07;;
66927;SDS011;59882;45.624;11.698;2023-07-13T04:58:01;25.93;;;13.57;;
66927;SDS011;59882;45.624;11.698;2023-07-13T05:00:27;18.42;;;10.88;;
66927;SDS011;59882;45.624;11.698;2023-07-13T05:02:54;26.05;;;11.68;;
66927;SDS011;59882;45.624;11.698;2023-07-13T05:05:22;16.92;;;9.10;;
66927;SDS011;59882;45.624;11.698;2023-07-13T05:07:48;14.60;;;8.63;;
66927;SDS011;59882;45.624;11.698;2023-07-13T05:10:14;11.57;;;7.10;;
66927;SDS011;59882;45.624;11.698;2023-07-13T05:12:40;17.98;;;7.85;;
66927;SDS011;59882;45.624;11.698;2023-07-13T05:15:06;16.03;;;7.70;;
66927;SDS011;59882;45.624;11.698;2023-07-13T05:17:32;14.93;;;8.27;;
66927;SDS011;59882;45.624;11.698;2023-07-13T05:19:58;15.30;;;7.32;;
66927;SDS011;59882;45.624;11.698;2023-07-13T05:22:23;13.37;;;7.23;;
66927;SDS011;59882;45.624;11.698;2023-07-13T05:24:49;14.63;;;8.37;;
66927;SDS011;59882;45.624;11.698;2023-07-13T05:27:15;11.93;;;8.07;;
66927;SDS011;59882;45.624;11.698;2023-07-13T05:29:40;12.20;;;6.87;;
66927;SDS011;59882;45.624;11.698;2023-07-13T05:32:06;11.88;;;7.70;;
66927;SDS011;59882;45.624;11.698;2023-07-13T05:34:32;14.27;;;7.00;;
66927;SDS011;59882;45.624;11.698;2023-07-13T05:36:57;11.07;;;6.17;;
66927;SDS011;59882;45.624;11.698;2023-07-13T05:39:23;14.48;;;6.75;;
66927;SDS011;59882;45.624;11.698;2023-07-13T05:41:49;13.85;;;7.22;;
66927;SDS011;59882;45.624;11.698;2023-07-13T05:44:15;14.80;;;7.20;;
66927;SDS011;59882;45.624;11.698;2023-07-13T05:46:40;10.20;;;6.93;;
66927;SDS011;59882;45.624;11.698;2023-07-13T05:49:06;13.13;;;4.72;;
66927;SDS011;59882;45.624;11.698;2023-07-13T05:51:32;9.53;;;4.97;;
66927;SDS011;59882;45.624;11.698;2023-07-13T05:53:57;9.57;;;5.28;;
66927;SDS011;59882;45.624;11.698;2023-07-13T05:56:23;10.77;;;5.43;;
66927;SDS011;59882;45.624;11.698;2023-07-13T05:58:50;12.55;;;7.07;;
66927;SDS011;59882;45.624;11.698;2023-07-13T06:01:16;13.68;;;5.28;;
66927;SDS011;59882;45.624;11.698;2023-07-13T06:03:42;12.87;;;4.50;;
66927;SDS011;59882;45.624;11.698;2023-07-13T06:06:08;11.00;;;4.30;;
66927;SDS011;59882;45.624;11.698;2023-07-13T06:08:35;8.95;;;3.78;;
66927;SDS011;59882;45.624;11.698;2023-07-13T06:11:02;7.72;;;2.90;;
66927;SDS011;59882;45.624;11.698;2023-07-13T06:13:38;7.53;;;3.50;;
66927;SDS011;59882;45.624;11.698;2023-07-13T06:16:04;10.80;;;4.65;;
66927;SDS011;59882;45.624;11.698;2023-07-13T06:18:34;9.80;;;4.22;;
66927;SDS011;59882;45.624;11.698;2023-07-13T06:21:05;8.73;;;3.97;;
66927;SDS011;59882;45.624;11.698;2023-07-13T06:23:41;9.73;;;4.17;;
66927;SDS011;59882;45.624;11.698;2023-07-13T06:26:08;9.48;;;3.50;;
66927;SDS011;59882;45.624;11.698;2023-07-13T06:28:34;8.32;;;3.15;;
66927;SDS011;59882;45.624;11.698;2023-07-13T06:31:01;10.63;;;2.33;;
66927;SDS011;59882;45.624;11.698;2023-07-13T06:33:29;7.00;;;2.00;;
66927;SDS011;59882;45.624;11.698;2023-07-13T06:35:54;6.83;;;2.33;;
66927;SDS011;59882;45.624;11.698;2023-07-13T06:38:20;9.33;;;2.93;;
66927;SDS011;59882;45.624;11.698;2023-07-13T06:40:47;7.53;;;2.40;;
66927;SDS011;59882;45.624;11.698;2023-07-13T06:43:12;6.65;;;2.88;;
66927;SDS011;59882;45.624;11.698;2023-07-13T06:45:45;7.87;;;3.43;;
66927;SDS011;59882;45.624;11.698;2023-07-13T06:48:14;6.80;;;2.95;;
66927;SDS011;59882;45.624;11.698;2023-07-13T06:50:41;10.95;;;3.33;;
66927;SDS011;59882;45.624;11.698;2023-07-13T06:53:07;10.70;;;4.00;;
66927;SDS011;59882;45.624;11.698;2023-07-13T06:55:33;9.38;;;3.42;;
66927;SDS011;59882;45.624;11.698;2023-07-13T06:57:59;7.68;;;3.92;;
66927;SDS011;59882;45.624;11.698;2023-07-13T07:00:24;11.33;;;4.20;;
66927;SDS011;59882;45.624;11.698;2023-07-13T07:02:50;9.15;;;3.83;;
66927;SDS011;59882;45.624;11.698;2023-07-13T07:05:16;11.63;;;4.67;;
66927;SDS011;59882;45.624;11.698;2023-07-13T07:07:41;9.70;;;3.90;;
66927;SDS011;59882;45.624;11.698;2023-07-13T07:10:07;9.33;;;4.63;;
66927;SDS011;59882;45.624;11.698;2023-07-13T07:12:33;9.27;;;4.75;;
66927;SDS011;59882;45.624;11.698;2023-07-13T07:14:59;9.33;;;4.80;;
66927;SDS011;59882;45.624;11.698;2023-07-13T07:17:24;11.45;;;4.78;;
66927;SDS011;59882;45.624;11.698;2023-07-13T07:19:51;11.48;;;5.43;;
66927;SDS011;59882;45.624;11.698;2023-07-13T07:22:19;14.13;;;5.80;;
66927;SDS011;59882;45.624;11.698;2023-07-13T07:24:45;10.50;;;4.78;;
66927;SDS011;59882;45.624;11.698;2023-07-13T07:27:11;8.93;;;5.15;;
66927;SDS011;59882;45.624;11.698;2023-07-13T07:29:36;10.00;;;5.27;;
66927;SDS011;59882;45.624;11.698;2023-07-13T07:32:02;8.97;;;4.30;;
66927;SDS011;59882;45.624;11.698;2023-07-13T07:34:28;12.98;;;4.78;;
66927;SDS011;59882;45.624;11.698;2023-07-13T07:36:54;10.05;;;4.57;;
66927;SDS011;59882;45.624;11.698;2023-07-13T07:39:28;11.82;;;4.55;;
66927;SDS011;59882;45.624;11.698;2023-07-13T07:41:55;11.23;;;4.97;;
66927;SDS011;59882;45.624;11.698;2023-07-13T07:44:20;8.20;;;4.73;;
66927;SDS011;59882;45.624;11.698;2023-07-13T07:46:46;10.67;;;4.70;;
66927;SDS011;59882;45.624;11.698;2023-07-13T07:49:12;13.57;;;6.20;;
66927;SDS011;59882;45.624;11.698;2023-07-13T07:51:38;10.68;;;5.65;;
66927;SDS011;59882;45.624;11.698;2023-07-13T07:54:04;9.67;;;4.80;;
66927;SDS011;59882;45.624;11.698;2023-07-13T07:56:30;13.75;;;6.43;;
66927;SDS011;59882;45.624;11.698;2023-07-13T07:58:56;8.75;;;5.38;;
66927;SDS011;59882;45.624;11.698;2023-07-13T08:01:22;13.37;;;6.17;;
66927;SDS011;59882;45.624;11.698;2023-07-13T08:03:48;9.98;;;5.93;;
66927;SDS011;59882;45.624;11.698;2023-07-13T08:06:13;9.53;;;6.90;;
66927;SDS011;59882;45.624;11.698;2023-07-13T08:08:40;14.15;;;6.95;;
66927;SDS011;59882;45.624;11.698;2023-07-13T08:11:06;14.95;;;7.05;;
66927;SDS011;59882;45.624;11.698;2023-07-13T08:13:33;10.53;;;7.23;;
66927;SDS011;59882;45.624;11.698;2023-07-13T08:15:59;9.82;;;7.35;;
66927;SDS011;59882;45.624;11.698;2023-07-13T08:18:25;13.52;;;7.15;;
66927;SDS011;59882;45.624;11.698;2023-07-13T08:20:51;12.50;;;6.50;;
66927;SDS011;59882;45.624;11.698;2023-07-13T08:23:17;13.52;;;6.30;;
66927;SDS011;59882;45.624;11.698;2023-07-13T08:25:50;10.30;;;5.70;;
66927;SDS011;59882;45.624;11.698;2023-07-13T08:28:16;16.43;;;6.37;;
66927;SDS011;59882;45.624;11.698;2023-07-13T08:30:42;13.23;;;6.68;;
66927;SDS011;59882;45.624;11.698;2023-07-13T08:33:07;10.37;;;6.67;;
66927;SDS011;59882;45.624;11.698;2023-07-13T08:35:33;12.37;;;6.40;;
66927;SDS011;59882;45.624;11.698;2023-07-13T08:37:58;11.73;;;7.50;;
66927;SDS011;59882;45.624;11.698;2023-07-13T08:40:25;14.60;;;7.15;;
66927;SDS011;59882;45.624;11.698;2023-07-13T08:43:01;10.10;;;6.90;;
66927;SDS011;59882;45.624;11.698;2023-07-13T08:45:43;13.30;;;7.47;;
66927;SDS011;59882;45.624;11.698;2023-07-13T08:48:19;13.00;;;7.22;;
66927;SDS011;59882;45.624;11.698;2023-07-13T08:53:42;14.63;;;7.63;;
66927;SDS011;59882;45.624;11.698;2023-07-13T08:56:17;11.73;;;7.60;;
66927;SDS011;59882;45.624;11.698;2023-07-13T08:58:46;12.18;;;7.20;;
66927;SDS011;59882;45.624;11.698;2023-07-13T09:04:23;13.65;;;6.90;;
66927;SDS011;59882;45.624;11.698;2023-07-13T09:12:17;12.30;;;6.68;;
66927;SDS011;59882;45.624;11.698;2023-07-13T09:15:02;10.65;;;6.53;;
66927;SDS011;59882;45.624;11.698;2023-07-13T09:17:39;10.70;;;6.15;;
66927;SDS011;59882;45.624;11.698;2023-07-13T09:20:16;10.98;;;7.18;;
66927;SDS011;59882;45.624;11.698;2023-07-13T09:22:50;17.93;;;6.63;;
66927;SDS011;59882;45.624;11.698;2023-07-13T09:25:32;14.75;;;6.57;;
66927;SDS011;59882;45.624;11.698;2023-07-13T09:28:43;10.38;;;5.90;;
66927;SDS011;59882;45.624;11.698;2023-07-13T09:30:58;14.13;;;6.60;;
66927;SDS011;59882;45.624;11.698;2023-07-13T09:33:29;11.60;;;6.32;;
66927;SDS011;59882;45.624;11.698;2023-07-13T09:35:56;10.90;;;6.43;;
66927;SDS011;59882;45.624;11.698;2023-07-13T09:38:24;11.65;;;6.68;;
66927;SDS011;59882;45.624;11.698;2023-07-13T09:41:02;12.27;;;6.95;;
66927;SDS011;59882;45.624;11.698;2023-07-13T09:46:37;11.40;;;6.78;;
66927;SDS011;59882;45.624;11.698;2023-07-13T09:49:04;14.67;;;7.57;;
66927;SDS011;59882;45.624;11.698;2023-07-13T09:51:29;11.80;;;7.55;;
66927;SDS011;59882;45.624;11.698;2023-07-13T09:53:55;11.90;;;7.07;;
66927;SDS011;59882;45.624;11.698;2023-07-13T09:56:23;14.43;;;8.15;;
66927;SDS011;59882;45.624;11.698;2023-07-13T09:58:52;13.00;;;7.60;;
66927;SDS011;59882;45.624;11.698;2023-07-13T10:01:35;11.27;;;6.53;;
66927;SDS011;59882;45.624;11.698;2023-07-13T10:04:02;10.60;;;7.18;;
66927;SDS011;59882;45.624;11.698;2023-07-13T10:06:38;9.43;;;6.93;;
66927;SDS011;59882;45.624;11.698;2023-07-13T10:09:07;9.88;;;6.97;;
66927;SDS011;59882;45.624;11.698;2023-07-13T10:11:34;17.17;;;8.48;;
66927;SDS011;59882;45.624;11.698;2023-07-13T10:14:22;13.15;;;6.88;;
66927;SDS011;59882;45.624;11.698;2023-07-13T10:16:52;12.52;;;8.73;;
66927;SDS011;59882;45.624;11.698;2023-07-13T10:19:28;15.17;;;8.27;;
66927;SDS011;59882;45.624;11.698;2023-07-13T10:22:13;14.23;;;9.02;;
66927;SDS011;59882;45.624;11.698;2023-07-13T10:24:50;13.60;;;8.32;;
66927;SDS011;59882;45.624;11.698;2023-07-13T10:29:44;12.35;;;8.68;;
66927;SDS011;59882;45.624;11.698;2023-07-13T10:32:11;10.63;;;7.07;;
66927;SDS011;59882;45.624;11.698;2023-07-13T10:34:38;16.13;;;8.50;;
66927;SDS011;59882;45.624;11.698;2023-07-13T10:37:18;11.23;;;6.85;;
66927;SDS011;59882;45.624;11.698;2023-07-13T10:39:47;12.25;;;7.38;;
66927;SDS011;59882;45.624;11.698;2023-07-13T10:42:16;11.02;;;6.55;;
66927;SDS011;59882;45.624;11.698;2023-07-13T10:44:55;12.90;;;7.47;;
66927;SDS011;59882;45.624;11.698;2023-07-13T10:47:21;10.43;;;6.97;;
66927;SDS011;59882;45.624;11.698;2023-07-13T10:49:47;9.07;;;4.88;;
66927;SDS011;59882;45.624;11.698;2023-07-13T10:58:18;14.60;;;4.72;;
66927;SDS011;59882;45.624;11.698;2023-07-13T11:03:31;9.73;;;5.15;;
66927;SDS011;59882;45.624;11.698;2023-07-13T11:06:16;9.43;;;4.67;;
66927;SDS011;59882;45.624;11.698;2023-07-13T11:08:58;7.68;;;4.00;;
66927;SDS011;59882;45.624;11.698;2023-07-13T11:11:33;7.03;;;3.58;;
66927;SDS011;59882;45.624;11.698;2023-07-13T11:14:02;8.98;;;3.70;;
66927;SDS011;59882;45.624;11.698;2023-07-13T11:16:45;7.28;;;3.55;;
66927;SDS011;59882;45.624;11.698;2023-07-13T11:27:26;7.50;;;4.22;;
66927;SDS011;59882;45.624;11.698;2023-07-13T11:30:24;7.65;;;4.07;;
66927;SDS011;59882;45.624;11.698;2023-07-13T11:33:14;7.63;;;4.20;;
66927;SDS011;59882;45.624;11.698;2023-07-13T11:35:52;7.78;;;3.22;;
66927;SDS011;59882;45.624;11.698;2023-07-13T11:38:32;6.78;;;2.53;;
66927;SDS011;59882;45.624;11.698;2023-07-13T11:41:06;5.57;;;2.50;;
66927;SDS011;59882;45.624;11.698;2023-07-13T11:43:39;6.00;;;2.40;;
66927;SDS011;59882;45.624;11.698;2023-07-13T11:46:12;7.27;;;1.97;;
66927;SDS011;59882;45.624;11.698;2023-07-13T11:48:39;6.75;;;1.75;;
66927;SDS011;59882;45.624;11.698;2023-07-13T11:51:05;8.25;;;2.50;;
66927;SDS011;59882;45.624;11.698;2023-07-13T11:53:38;4.93;;;2.13;;
66927;SDS011;59882;45.624;11.698;2023-07-13T11:56:06;6.85;;;2.47;;
66927;SDS011;59882;45.624;11.698;2023-07-13T11:58:32;9.02;;;3.05;;
66927;SDS011;59882;45.624;11.698;2023-07-13T12:00:59;9.52;;;2.63;;
66927;SDS011;59882;45.624;11.698;2023-07-13T12:03:29;10.25;;;3.55;;
66927;SDS011;59882;45.624;11.698;2023-07-13T12:06:01;11.97;;;4.40;;
66927;SDS011;59882;45.624;11.698;2023-07-13T12:08:31;10.07;;;3.95;;
66927;SDS011;59882;45.624;11.698;2023-07-13T12:11:03;9.75;;;3.70;;
66927;SDS011;59882;45.624;11.698;2023-07-13T12:13:34;10.95;;;4.20;;
66927;SDS011;59882;45.624;11.698;2023-07-13T12:16:14;8.10;;;4.07;;
66927;SDS011;59882;45.624;11.698;2023-07-13T12:18:42;12.40;;;4.20;;
66927;SDS011;59882;45.624;11.698;2023-07-13T12:21:14;11.82;;;3.42;;
66927;SDS011;59882;45.624;11.698;2023-07-13T12:23:44;9.38;;;2.92;;
66927;SDS011;59882;45.624;11.698;2023-07-13T12:26:10;10.45;;;3.38;;
66927;SDS011;59882;45.624;11.698;2023-07-13T12:28:47;5.40;;;2.85;;
66927;SDS011;59882;45.624;11.698;2023-07-13T12:34:16;8.77;;;3.20;;
66927;SDS011;59882;45.624;11.698;2023-07-13T12:39:25;10.93;;;3.58;;
66927;SDS011;59882;45.624;11.698;2023-07-13T12:44:53;16.93;;;3.97;;
66927;SDS011;59882;45.624;11.698;2023-07-13T12:47:22;12.13;;;4.30;;
66927;SDS011;59882;45.624;11.698;2023-07-13T12:49:50;12.93;;;3.85;;
66927;SDS011;59882;45.624;11.698;2023-07-13T12:52:22;11.10;;;3.90;;
66927;SDS011;59882;45.624;11.698;2023-07-13T12:54:59;9.75;;;3.33;;
66927;SDS011;59882;45.624;11.698;2023-07-13T12:57:30;10.50;;;4.07;;
66927;SDS011;59882;45.624;11.698;2023-07-13T12:59:56;9.30;;;3.27;;
66927;SDS011;59882;45.624;11.698;2023-07-13T13:02:26;12.52;;;3.70;;
66927;SDS011;59882;45.624;11.698;2023-07-13T13:04:56;9.63;;;3.70;;
66927;SDS011;59882;45.624;11.698;2023-07-13T13:07:23;9.68;;;3.70;;
66927;SDS011;59882;45.624;11.698;2023-07-13T13:09:49;9.30;;;3.17;;
66927;SDS011;59882;45.624;11.698;2023-07-13T13:12:15;10.38;;;3.45;;
66927;SDS011;59882;45.624;11.698;2023-07-13T13:14:42;8.40;;;3.00;;
66927;SDS011;59882;45.624;11.698;2023-07-13T13:17:29;14.07;;;3.83;;
66927;SDS011;59882;45.624;11.698;2023-07-13T13:19:55;10.00;;;3.55;;
66927;SDS011;59882;45.624;11.698;2023-07-13T13:22:22;9.90;;;3.30;;
66927;SDS011;59882;45.624;11.698;2023-07-13T13:24:48;8.77;;;3.43;;
66927;SDS011;59882;45.624;11.698;2023-07-13T13:27:17;7.55;;;3.58;;
66927;SDS011;59882;45.624;11.698;2023-07-13T13:29:44;6.75;;;3.65;;
66927;SDS011;59882;45.624;11.698;2023-07-13T13:32:13;8.20;;;3.35;;
66927;SDS011;59882;45.624;11.698;2023-07-13T13:34:40;10.27;;;3.60;;
66927;SDS011;59882;45.624;11.698;2023-07-13T13:37:17;12.68;;;4.05;;
66927;SDS011;59882;45.624;11.698;2023-07-13T13:39:45;9.00;;;3.38;;
66927;SDS011;59882;45.624;11.698;2023-07-13T13:42:11;8.80;;;3.78;;
66927;SDS011;59882;45.624;11.698;2023-07-13T13:44:37;10.48;;;3.90;;
66927;SDS011;59882;45.624;11.698;2023-07-13T13:47:03;9.67;;;3.97;;
66927;SDS011;59882;45.624;11.698;2023-07-13T13:49:29;8.73;;;4.07;;
66927;SDS011;59882;45.624;11.698;2023-07-13T13:51:55;9.95;;;3.78;;
66927;SDS011;59882;45.624;11.698;2023-07-13T13:54:22;11.00;;;4.20;;
66927;SDS011;59882;45.624;11.698;2023-07-13T13:56:49;8.65;;;3.70;;
66927;SDS011;59882;45.624;11.698;2023-07-13T13:59:16;10.70;;;4.05;;
66927;SDS011;59882;45.624;11.698;2023-07-13T14:01:43;8.73;;;3.72;;
66927;SDS011;59882;45.624;11.698;2023-07-13T14:04:20;10.75;;;4.35;;
66927;SDS011;59882;45.624;11.698;2023-07-13T14:06:47;13.10;;;4.20;;
66927;SDS011;59882;45.624;11.698;2023-07-13T14:09:15;16.35;;;4.35;;
66927;SDS011;59882;45.624;11.698;2023-07-13T14:11:43;11.95;;;4.47;;
66927;SDS011;59882;45.624;11.698;2023-07-13T14:14:14;11.52;;;4.18;;
66927;SDS011;59882;45.624;11.698;2023-07-13T14:16:43;10.63;;;4.50;;
66927;SDS011;59882;45.624;11.698;2023-07-13T14:19:12;13.67;;;4.80;;
66927;SDS011;59882;45.624;11.698;2023-07-13T14:21:39;11.35;;;5.13;;
66927;SDS011;59882;45.624;11.698;2023-07-13T14:24:05;13.07;;;6.63;;
66927;SDS011;59882;45.624;11.698;2023-07-13T14:26:35;15.20;;;6.60;;
66927;SDS011;59882;45.624;11.698;2023-07-13T14:29:04;18.92;;;8.18;;
66927;SDS011;59882;45.624;11.698;2023-07-13T14:31:36;72.70;;;15.40;;
66927;SDS011;59882;45.624;11.698;2023-07-13T14:34:02;18.90;;;5.55;;
66927;SDS011;59882;45.624;11.698;2023-07-13T14:36:28;14.20;;;5.00;;
66927;SDS011;59882;45.624;11.698;2023-07-13T14:38:57;15.63;;;4.85;;
66927;SDS011;59882;45.624;11.698;2023-07-13T14:41:24;18.20;;;5.10;;
66927;SDS011;59882;45.624;11.698;2023-07-13T14:43:50;14.30;;;5.10;;
66927;SDS011;59882;45.624;11.698;2023-07-13T14:49:00;7.57;;;2.78;;
66927;SDS011;59882;45.624;11.698;2023-07-13T14:51:28;7.85;;;2.88;;
66927;SDS011;59882;45.624;11.698;2023-07-13T14:53:55;8.23;;;2.40;;
66927;SDS011;59882;45.624;11.698;2023-07-13T14:56:21;7.75;;;2.65;;
66927;SDS011;59882;45.624;11.698;2023-07-13T14:58:46;10.83;;;2.73;;
66927;SDS011;59882;45.624;11.698;2023-07-13T15:01:12;7.40;;;2.50;;
66927;SDS011;59882;45.624;11.698;2023-07-13T15:03:43;6.25;;;2.00;;
66927;SDS011;59882;45.624;11.698;2023-07-13T15:06:12;5.83;;;1.90;;
66927;SDS011;59882;45.624;11.698;2023-07-13T15:08:38;8.48;;;2.00;;
66927;SDS011;59882;45.624;11.698;2023-07-13T15:11:06;5.95;;;2.33;;
66927;SDS011;59882;45.624;11.698;2023-07-13T15:13:32;7.70;;;2.67;;
66927;SDS011;59882;45.624;11.698;2023-07-13T15:15:58;7.17;;;2.40;;
66927;SDS011;59882;45.624;11.698;2023-07-13T15:18:24;6.13;;;1.60;;